createdAt,value
2018-02-10T00:01:03.868Z,91.33
2018-02-10T00:03:31.383Z,97.23
2018-02-10T00:05:58.906Z,97.23
2018-02-10T00:08:26.455Z,95.07
2018-02-10T00:10:53.957Z,93.30
2018-02-10T00:13:21.470Z,95.27
2018-02-10T00:15:48.983Z,94.60
2018-02-10T00:18:16.515Z,100.63
2018-02-10T00:20:44.030Z,92.03
2018-02-10T00:23:11.538Z,91.07
2018-02-10T00:25:39.054Z,95.30
2018-02-10T00:28:06.562Z,100.73
2018-02-10T00:30:34.083Z,101.23
2018-02-10T00:33:01.606Z,103.50
2018-02-10T00:35:29.106Z,97.97
2018-02-10T00:37:56.604Z,105.23
2018-02-10T00:40:24.120Z,105.87
2018-02-10T00:42:51.629Z,96.67
2018-02-10T00:45:19.147Z,90.37
2018-02-10T00:47:46.636Z,96.17
2018-02-10T00:50:14.153Z,109.47
2018-02-10T00:52:41.683Z,104.60
2018-02-10T00:55:09.181Z,101.07
2018-02-10T00:57:36.684Z,106.37
2018-02-10T01:00:05.860Z,99.53
2018-02-10T01:02:33.394Z,99.57
2018-02-10T01:05:00.908Z,94.17
2018-02-10T01:07:28.411Z,103.47
2018-02-10T01:09:55.899Z,95.47
2018-02-10T01:12:23.410Z,103.53
2018-02-10T01:14:50.915Z,98.87
2018-02-10T01:17:18.409Z,92.73
2018-02-10T01:19:46.107Z,108.60
2018-02-10T01:22:13.618Z,106.63
2018-02-10T01:24:41.128Z,108.77
2018-02-10T01:27:08.652Z,100.53
2018-02-10T01:29:36.155Z,109.47
2018-02-10T01:32:03.685Z,107.63
2018-02-10T01:34:31.195Z,95.80
2018-02-10T01:36:58.722Z,96.73
2018-02-10T01:39:26.243Z,98.80
2018-02-10T01:41:53.759Z,104.73
2018-02-10T01:44:21.257Z,105.83
2018-02-10T01:46:48.770Z,98.80
2018-02-10T01:49:16.279Z,103.10
2018-02-10T01:51:43.777Z,100.30
2018-02-10T01:54:11.272Z,105.50
2018-02-10T01:56:38.771Z,100.60
2018-02-10T01:59:06.270Z,94.50
2018-02-10T02:01:33.760Z,98.70
2018-02-10T02:04:01.284Z,97.77
2018-02-10T02:06:28.802Z,104.60
2018-02-10T02:08:56.304Z,101.60
2018-02-10T02:11:23.803Z,102.80
2018-02-10T02:13:51.311Z,101.50
2018-02-10T02:16:18.818Z,101.23
2018-02-10T02:18:46.339Z,96.37
2018-02-10T02:21:13.853Z,95.57
2018-02-10T02:23:41.392Z,106.63
2018-02-10T02:26:08.898Z,100.90
2018-02-10T02:28:36.484Z,103.33
2018-02-10T02:31:03.985Z,98.93
2018-02-10T02:33:31.494Z,96.50
2018-02-10T02:35:59.032Z,100.80
2018-02-10T02:38:26.548Z,102.17
2018-02-10T02:40:54.054Z,96.63
2018-02-10T02:43:21.566Z,100.73
2018-02-10T02:45:49.089Z,107.93
2018-02-10T02:48:16.599Z,101.13
2018-02-10T02:50:44.118Z,104.53
2018-02-10T02:53:11.635Z,92.23
2018-02-10T02:55:39.132Z,96.40
2018-02-10T02:58:06.628Z,99.10
2018-02-10T03:00:34.136Z,94.77
2018-02-10T03:03:01.640Z,92.07
2018-02-10T03:05:29.182Z,91.13
2018-02-10T03:07:56.726Z,95.63
2018-02-10T03:10:24.220Z,93.40
2018-02-10T03:12:51.750Z,102.93
2018-02-10T03:15:19.255Z,86.80
2018-02-10T03:17:46.820Z,93.07
2018-02-10T03:20:14.323Z,89.87
2018-02-10T03:22:41.835Z,102.00
2018-02-10T03:25:09.359Z,94.17
2018-02-10T03:27:36.853Z,98.33
2018-02-10T03:30:04.384Z,81.37
2018-02-10T03:32:31.899Z,96.37
2018-02-10T03:34:59.393Z,93.33
2018-02-10T03:37:26.894Z,84.43
2018-02-10T03:39:54.419Z,89.80
2018-02-10T03:42:21.974Z,89.93
2018-02-10T03:44:49.722Z,85.77
2018-02-10T03:47:17.223Z,89.90
2018-02-10T03:49:44.728Z,82.93
2018-02-10T03:52:12.248Z,84.80
2018-02-10T03:54:39.748Z,94.07
2018-02-10T03:57:07.271Z,97.33
2018-02-10T03:59:34.793Z,94.10
2018-02-10T04:02:02.301Z,88.77
2018-02-10T04:04:29.843Z,97.97
2018-02-10T04:06:57.379Z,85.73
2018-02-10T04:09:24.888Z,89.43
2018-02-10T04:11:52.415Z,92.97
2018-02-10T04:14:19.958Z,86.60
2018-02-10T04:16:47.472Z,90.60
2018-02-10T04:19:15.098Z,84.17
2018-02-10T04:21:42.644Z,91.70
2018-02-10T04:24:10.190Z,88.57
2018-02-10T04:26:37.696Z,88.53
2018-02-10T04:29:05.230Z,100.50
2018-02-10T04:31:32.747Z,84.20
2018-02-10T04:34:00.256Z,89.97
2018-02-10T04:36:27.763Z,87.97
2018-02-10T04:38:55.270Z,86.23
2018-02-10T04:41:22.773Z,90.23
2018-02-10T04:43:50.290Z,89.03
2018-02-10T04:46:17.788Z,96.80
2018-02-10T04:48:45.324Z,80.13
2018-02-10T04:51:12.850Z,90.97
2018-02-10T04:53:40.347Z,88.47
2018-02-10T04:56:07.863Z,81.70
2018-02-10T04:58:35.394Z,78.87
2018-02-10T05:01:02.908Z,82.47
2018-02-10T05:03:30.428Z,87.30
2018-02-10T05:05:57.985Z,90.30
2018-02-10T05:08:25.476Z,98.97
2018-02-10T05:10:52.970Z,87.73
2018-02-10T05:13:20.479Z,97.70
2018-02-10T05:15:48.003Z,89.50
2018-02-10T05:18:15.531Z,100.97
2018-02-10T05:20:43.035Z,91.17
2018-02-10T05:23:10.534Z,84.00
2018-02-10T05:25:38.043Z,89.73
2018-02-10T05:28:05.551Z,81.47
2018-02-10T05:30:33.060Z,100.53
2018-02-10T05:33:00.584Z,93.87
2018-02-10T05:35:28.106Z,86.63
2018-02-10T05:37:55.624Z,81.50
2018-02-10T05:40:23.114Z,86.67
2018-02-10T05:42:50.647Z,86.57
2018-02-10T05:45:18.170Z,102.57
2018-02-10T05:47:45.706Z,89.17
2018-02-10T05:50:13.201Z,87.13
2018-02-10T05:52:40.709Z,92.80
2018-02-10T05:55:08.212Z,91.00
2018-02-10T05:57:35.749Z,95.03
2018-02-10T06:00:03.270Z,91.37
2018-02-10T06:02:30.790Z,99.77
2018-02-10T06:04:58.371Z,86.80
2018-02-10T06:07:25.867Z,80.83
2018-02-10T06:09:53.375Z,87.33
2018-02-10T06:12:20.929Z,85.17
2018-02-10T06:14:48.486Z,86.43
2018-02-10T06:17:16.215Z,91.17
2018-02-10T06:19:43.724Z,98.93
2018-02-10T06:22:11.285Z,91.03
2018-02-10T06:24:38.784Z,93.47
2018-02-10T06:27:06.282Z,91.13
2018-02-10T06:29:33.788Z,91.07
2018-02-10T06:32:01.303Z,90.30
2018-02-10T06:34:28.820Z,95.20
2018-02-10T06:36:56.338Z,91.33
2018-02-10T06:39:23.829Z,86.73
2018-02-10T06:41:51.374Z,95.97
2018-02-10T06:44:18.868Z,90.27
2018-02-10T06:46:46.372Z,83.23
2018-02-10T06:49:13.869Z,94.07
2018-02-10T06:51:41.392Z,88.03
2018-02-10T06:54:08.912Z,87.90
2018-02-10T06:56:36.446Z,91.87
2018-02-10T06:59:03.947Z,82.53
2018-02-10T07:01:31.441Z,80.87
2018-02-10T07:03:58.964Z,90.63
2018-02-10T07:06:26.464Z,88.33
2018-02-10T07:08:54.010Z,89.87
2018-02-10T07:11:21.518Z,90.83
2018-02-10T07:13:49.038Z,88.80
2018-02-10T07:16:16.533Z,86.23
2018-02-10T07:18:44.040Z,86.53
2018-02-10T07:21:11.561Z,90.90
2018-02-10T07:23:39.091Z,95.30
2018-02-10T07:26:06.607Z,102.03
2018-02-10T07:28:34.100Z,99.23
2018-02-10T07:31:01.682Z,92.67
2018-02-10T07:33:29.306Z,101.07
2018-02-10T07:35:56.843Z,90.37
2018-02-10T07:38:24.413Z,88.27
2018-02-10T07:40:52.027Z,81.07
2018-02-10T07:43:19.533Z,89.10
2018-02-10T07:45:47.033Z,83.67
2018-02-10T07:48:14.579Z,91.57
2018-02-10T07:50:42.117Z,87.37
2018-02-10T07:53:09.619Z,86.20
2018-02-10T07:55:37.126Z,85.37
2018-02-10T07:58:04.629Z,80.43
2018-02-10T08:00:32.120Z,93.47
2018-02-10T08:02:59.631Z,82.07
2018-02-10T08:05:27.180Z,88.77
2018-02-10T08:07:54.669Z,94.33
2018-02-10T08:10:22.279Z,91.10
2018-02-10T08:12:49.772Z,83.77
2018-02-10T08:15:17.264Z,87.27
2018-02-10T08:17:44.770Z,88.50
2018-02-10T08:20:12.300Z,82.60
2018-02-10T08:22:39.818Z,73.43
2018-02-10T08:25:07.336Z,80.47
2018-02-10T08:27:34.917Z,86.53
2018-02-10T08:30:02.448Z,78.23
2018-02-10T08:32:29.949Z,78.80
2018-02-10T08:34:57.448Z,86.13
2018-02-10T08:37:24.935Z,72.00
2018-02-10T08:39:52.499Z,73.13
2018-02-10T08:42:20.024Z,75.07
2018-02-10T08:44:47.544Z,74.20
2018-02-10T08:47:15.060Z,78.27
2018-02-10T08:49:42.582Z,77.17
2018-02-10T08:52:10.120Z,76.60
2018-02-10T08:54:37.618Z,69.27
2018-02-10T08:57:05.125Z,70.70
2018-02-10T08:59:32.642Z,79.80
2018-02-10T09:02:00.190Z,76.57
2018-02-10T09:04:27.699Z,75.00
2018-02-10T09:06:55.199Z,70.53
2018-02-10T09:09:24.402Z,77.60
2018-02-10T09:11:51.900Z,69.93
2018-02-10T09:14:19.415Z,67.63
2018-02-10T09:16:46.991Z,74.43
2018-02-10T09:19:16.724Z,71.40
2018-02-10T09:21:44.299Z,66.40
2018-02-10T09:24:12.220Z,63.20
2018-02-10T09:26:39.727Z,70.10
2018-02-10T09:29:07.269Z,62.63
2018-02-10T09:31:34.888Z,66.80
2018-02-10T09:34:02.405Z,66.57
2018-02-10T09:36:29.892Z,63.30
2018-02-10T09:38:57.470Z,63.87
2018-02-10T09:41:25.043Z,62.53
2018-02-10T09:43:52.528Z,65.40
2018-02-10T09:46:20.025Z,63.73
2018-02-10T09:48:47.926Z,70.07
2018-02-10T09:51:15.519Z,61.27
2018-02-10T09:53:43.086Z,65.87
2018-02-10T09:56:10.656Z,63.10
2018-02-10T09:58:38.236Z,58.93
2018-02-10T10:01:05.758Z,60.83
2018-02-10T10:03:33.271Z,67.43
2018-02-10T10:06:00.758Z,61.90
2018-02-10T10:08:30.036Z,63.27
2018-02-10T10:10:57.563Z,62.90
2018-02-10T10:13:25.060Z,62.80
2018-02-10T10:15:52.554Z,63.77
2018-02-10T10:18:20.069Z,63.47
2018-02-10T10:20:47.590Z,62.23
2018-02-10T10:23:15.116Z,66.43
2018-02-10T10:25:42.632Z,61.30
2018-02-10T10:28:10.190Z,57.90
2018-02-10T10:30:37.711Z,65.37
2018-02-10T10:33:05.226Z,64.67
2018-02-10T10:35:32.762Z,56.00
2018-02-10T10:38:00.329Z,63.73
2018-02-10T10:40:27.844Z,58.07
2018-02-10T10:42:55.375Z,62.83
2018-02-10T10:45:22.892Z,58.07
2018-02-10T10:47:50.463Z,58.00
2018-02-10T10:50:17.978Z,56.77
2018-02-10T10:52:45.725Z,60.53
2018-02-10T10:55:13.238Z,58.80
2018-02-10T10:57:40.811Z,59.07
2018-02-10T11:00:08.304Z,56.40
2018-02-10T11:02:35.812Z,56.77
2018-02-10T11:05:03.383Z,57.63
2018-02-10T11:07:31.211Z,57.80
2018-02-10T11:09:58.712Z,55.40
2018-02-10T11:12:26.209Z,60.03
2018-02-10T11:14:53.748Z,60.30
2018-02-10T11:17:21.260Z,64.47
2018-02-10T11:19:48.786Z,61.57
2018-02-10T11:22:16.330Z,56.37
2018-02-10T11:24:44.717Z,62.63
2018-02-10T11:27:12.226Z,63.23
2018-02-10T11:29:39.763Z,60.00
2018-02-10T11:32:08.212Z,59.53
2018-02-10T11:34:35.764Z,62.77
2018-02-10T11:37:03.308Z,62.57
2018-02-10T11:39:30.818Z,59.70
2018-02-10T11:41:58.327Z,60.20
2018-02-10T11:44:25.820Z,71.53
2018-02-10T11:46:53.326Z,55.50
2018-02-10T11:49:20.922Z,61.33
2018-02-10T11:51:48.475Z,61.57
2018-02-10T11:54:15.984Z,66.70
2018-02-10T11:56:43.496Z,59.73
2018-02-10T11:59:10.994Z,65.33
2018-02-10T12:01:38.481Z,63.40
2018-02-10T12:04:05.980Z,62.53
2018-02-10T12:06:33.469Z,64.60
2018-02-10T12:09:00.968Z,62.13
2018-02-10T12:11:28.693Z,67.57
2018-02-10T12:13:56.235Z,64.63
2018-02-10T12:16:23.766Z,60.83
2018-02-10T12:18:51.273Z,61.70
2018-02-10T12:21:18.825Z,60.73
2018-02-10T12:23:46.475Z,63.93
2018-02-10T12:26:13.986Z,57.50
2018-02-10T12:28:41.475Z,58.93
2018-02-10T12:31:08.999Z,61.37
2018-02-10T12:33:36.498Z,64.20
2018-02-10T12:36:04.023Z,54.73
2018-02-10T12:38:32.910Z,60.57
2018-02-10T12:41:00.422Z,55.77
2018-02-10T12:43:28.018Z,62.73
2018-02-10T12:45:55.528Z,61.90
2018-02-10T12:51:35.471Z,56.93
2018-02-10T12:54:02.972Z,62.03
2018-02-10T12:56:30.486Z,67.33
2018-02-10T12:58:57.984Z,66.40
2018-02-10T13:01:25.557Z,65.77
2018-02-10T13:03:53.099Z,67.50
2018-02-10T13:06:20.642Z,58.87
2018-02-10T13:08:48.241Z,67.70
2018-02-10T13:14:06.766Z,67.97
2018-02-10T13:16:34.587Z,70.60
2018-02-10T13:19:02.782Z,63.10
2018-02-10T13:21:30.369Z,68.27
2018-02-10T13:24:02.025Z,65.97
2018-02-10T13:26:29.606Z,66.77
2018-02-10T13:28:57.385Z,66.20
2018-02-10T13:31:25.025Z,69.07
2018-02-10T13:33:57.229Z,71.47
2018-02-10T13:36:24.921Z,68.73
2018-02-10T13:38:59.443Z,63.23
2018-02-10T13:41:26.942Z,66.77
2018-02-10T13:43:58.398Z,68.23
2018-02-10T13:46:33.540Z,76.50
2018-02-10T13:49:01.123Z,68.13
2018-02-10T13:51:28.644Z,67.90
2018-02-10T13:53:57.655Z,74.27
2018-02-10T13:56:26.553Z,64.77
2018-02-10T13:58:54.130Z,76.47
2018-02-10T14:01:21.658Z,69.40
2018-02-10T14:03:57.026Z,74.87
2018-02-10T14:06:26.365Z,70.10
2018-02-10T14:08:53.876Z,73.40
2018-02-10T14:11:21.400Z,70.13
2018-02-10T14:16:27.716Z,68.50
2018-02-10T14:18:55.328Z,69.87
2018-02-10T14:21:22.885Z,75.57
2018-02-10T14:23:50.398Z,70.50
2018-02-10T14:26:17.905Z,86.63
2018-02-10T14:28:45.421Z,76.50
2018-02-10T14:31:15.861Z,72.50
2018-02-10T14:33:43.380Z,82.97
2018-02-10T14:36:10.897Z,71.97
2018-02-10T14:38:38.405Z,83.27
2018-02-10T14:41:07.392Z,81.17
2018-02-10T14:43:36.176Z,81.47
2018-02-10T14:46:03.678Z,79.47
2018-02-10T14:48:31.184Z,78.30
2018-02-10T14:50:58.676Z,78.67
2018-02-10T14:53:26.183Z,74.80
2018-02-10T14:55:53.673Z,75.80
2018-02-10T14:58:21.287Z,83.40
2018-02-10T15:00:48.802Z,70.73
2018-02-10T15:03:16.324Z,89.80
2018-02-10T15:05:43.893Z,93.45
2018-02-10T15:08:11.447Z,85.80
2018-02-10T15:10:38.981Z,82.43
2018-02-10T15:13:07.033Z,87.13
2018-02-10T15:15:34.528Z,78.83
2018-02-10T15:18:02.049Z,78.10
2018-02-10T15:20:34.623Z,81.00
2018-02-10T15:23:02.131Z,80.40
2018-02-10T15:25:29.679Z,81.00
2018-02-10T15:27:57.281Z,78.37
2018-02-10T15:33:46.407Z,82.87
2018-02-10T15:36:13.932Z,84.90
2018-02-10T15:38:41.435Z,84.90
2018-02-10T15:41:08.983Z,85.93
2018-02-10T15:43:36.572Z,91.63
2018-02-10T15:46:04.182Z,82.30
2018-02-10T15:48:31.676Z,79.00
2018-02-10T15:50:59.232Z,82.27
2018-02-10T15:53:26.849Z,89.70
2018-02-10T15:55:54.341Z,81.23
2018-02-10T15:58:21.882Z,81.60
2018-02-10T16:00:49.427Z,85.97
2018-02-10T16:03:16.928Z,85.27
2018-02-10T16:05:44.443Z,79.97
2018-02-10T16:08:11.947Z,88.07
2018-02-10T16:10:39.460Z,89.17
2018-02-10T16:13:06.952Z,88.83
2018-02-10T16:15:34.527Z,86.80
2018-02-10T16:18:02.023Z,80.30
2018-02-10T16:20:29.528Z,88.73
2018-02-10T16:22:57.123Z,77.17
2018-02-10T16:25:24.692Z,80.13
2018-02-10T16:27:52.196Z,80.50
2018-02-10T16:30:19.686Z,84.57
2018-02-10T16:32:49.005Z,82.33
2018-02-10T16:35:16.604Z,83.67
2018-02-10T16:37:44.124Z,91.00
2018-02-10T16:40:11.643Z,84.13
2018-02-10T16:42:39.732Z,79.67
2018-02-10T16:45:07.220Z,92.17
2018-02-10T16:47:37.774Z,90.70
2018-02-10T16:50:05.371Z,84.93
2018-02-10T16:52:32.864Z,85.93
2018-02-10T16:55:00.383Z,85.73
2018-02-10T16:57:27.886Z,79.33
2018-02-10T16:59:55.394Z,77.83
2018-02-10T17:02:24.594Z,80.80
2018-02-10T17:04:52.102Z,87.33
2018-02-10T17:07:19.736Z,82.77
2018-02-10T17:09:47.264Z,88.17
2018-02-10T17:12:14.834Z,76.27
2018-02-10T17:14:42.346Z,82.83
2018-02-10T17:17:09.851Z,84.87
2018-02-10T17:19:37.362Z,84.70
2018-02-10T17:22:04.908Z,85.33
2018-02-10T17:24:32.436Z,92.67
2018-02-10T17:26:59.967Z,83.67
2018-02-10T17:29:27.483Z,80.73
2018-02-10T17:31:55.062Z,75.53
2018-02-10T17:34:22.560Z,81.20
2018-02-10T17:36:50.102Z,79.63
2018-02-10T17:39:17.600Z,83.60
2018-02-10T17:41:45.112Z,79.03
2018-02-10T17:44:13.106Z,79.97
2018-02-10T17:46:40.614Z,79.50
2018-02-10T17:49:08.141Z,75.30
2018-02-10T17:51:35.667Z,81.03
2018-02-10T17:54:03.178Z,73.60
2018-02-10T17:56:30.927Z,78.27
2018-02-10T17:58:58.452Z,83.50
2018-02-10T18:01:27.712Z,77.20
2018-02-10T18:03:55.208Z,75.67
2018-02-10T18:06:22.731Z,78.53
2018-02-10T18:08:52.861Z,79.03
2018-02-10T18:11:21.817Z,83.80
2018-02-10T18:13:49.391Z,73.20
2018-02-10T18:16:16.914Z,72.53
2018-02-10T18:18:44.422Z,84.93
2018-02-10T18:21:11.912Z,75.10
2018-02-10T18:23:39.418Z,72.63
2018-02-10T18:26:06.953Z,79.87
2018-02-10T18:28:34.485Z,82.13
2018-02-10T18:31:01.980Z,72.57
2018-02-10T18:33:29.510Z,73.83
2018-02-10T18:35:57.040Z,77.00
2018-02-10T18:38:24.516Z,76.57
2018-02-10T18:40:52.021Z,74.33
2018-02-10T18:43:19.521Z,77.53
2018-02-10T18:45:47.709Z,75.13
2018-02-10T18:48:15.206Z,81.03
2018-02-10T18:50:42.743Z,71.57
2018-02-10T18:53:10.240Z,69.73
2018-02-10T18:55:37.721Z,68.40
2018-02-10T18:58:05.229Z,71.87
2018-02-10T19:00:32.719Z,75.33
2018-02-10T19:03:00.208Z,72.63
2018-02-10T19:05:27.723Z,70.80
2018-02-10T19:07:55.220Z,75.77
2018-02-10T19:10:22.732Z,71.83
2018-02-10T19:12:51.083Z,69.93
2018-02-10T19:15:18.594Z,74.87
2018-02-10T19:17:46.139Z,70.33
2018-02-10T19:20:13.687Z,68.57
2018-02-10T19:22:41.207Z,68.17
2018-02-10T19:25:08.709Z,67.10
2018-02-10T19:27:36.200Z,60.83
2018-02-10T19:30:03.738Z,63.10
2018-02-10T19:32:31.238Z,77.87
2018-02-10T19:34:58.732Z,68.17
2018-02-10T19:37:26.224Z,62.13
2018-02-10T19:39:53.727Z,65.47
2018-02-10T19:42:21.233Z,65.10
2018-02-10T19:44:48.737Z,66.97
2018-02-10T19:47:16.238Z,65.83
2018-02-10T19:49:43.728Z,62.23
2018-02-10T19:52:11.248Z,58.40
2018-02-10T19:54:38.744Z,62.13
2018-02-10T19:57:06.259Z,59.90
2018-02-10T19:59:33.864Z,65.13
2018-02-10T20:02:01.376Z,58.53
2018-02-10T20:04:28.890Z,57.70
2018-02-10T20:06:56.376Z,59.73
2018-02-10T20:09:23.884Z,59.37
2018-02-10T20:11:51.387Z,56.27
2018-02-10T20:14:18.915Z,61.30
2018-02-10T20:16:46.392Z,57.47
2018-02-10T20:19:13.902Z,60.10
2018-02-10T20:21:41.396Z,69.30
2018-02-10T20:24:08.896Z,56.50
2018-02-10T20:26:36.388Z,59.00
2018-02-10T20:29:03.915Z,57.40
2018-02-10T20:31:31.421Z,61.90
2018-02-10T20:33:58.923Z,60.30
2018-02-10T20:36:26.470Z,59.27
2018-02-10T20:38:53.982Z,56.43
2018-02-10T20:41:21.507Z,62.43
2018-02-10T20:43:49.011Z,55.10
2018-02-10T20:46:16.515Z,63.03
2018-02-10T20:48:44.024Z,56.63
2018-02-10T20:51:11.539Z,54.47
2018-02-10T20:53:39.071Z,56.90
2018-02-10T20:56:06.582Z,62.23
2018-02-10T20:58:34.095Z,59.40
2018-02-10T21:01:01.612Z,56.83
2018-02-10T21:03:29.145Z,64.17
2018-02-10T21:05:56.687Z,52.87
2018-02-10T21:08:24.214Z,56.67
2018-02-10T21:10:51.710Z,52.77
2018-02-10T21:13:19.257Z,55.87
2018-02-10T21:15:46.783Z,49.67
2018-02-10T21:18:14.287Z,53.00
2018-02-10T21:20:41.810Z,51.43
2018-02-10T21:23:09.302Z,50.37
2018-02-10T21:25:36.829Z,56.53
2018-02-10T21:28:04.403Z,52.60
2018-02-10T21:30:31.914Z,51.20
2018-02-10T21:32:59.418Z,53.27
2018-02-10T21:35:26.914Z,53.43
2018-02-10T21:37:54.610Z,50.43
2018-02-10T21:40:22.108Z,52.87
2018-02-10T21:42:50.013Z,55.80
2018-02-10T21:45:17.522Z,51.27
2018-02-10T21:47:45.023Z,50.67
2018-02-10T21:50:12.611Z,51.27
2018-02-10T21:52:40.566Z,50.87
2018-02-10T21:55:08.091Z,50.97
2018-02-10T21:57:35.629Z,54.20
2018-02-10T22:00:03.138Z,52.27
2018-02-10T22:02:30.650Z,52.17
2018-02-10T22:04:58.160Z,54.40
2018-02-10T22:07:25.848Z,52.13
2018-02-10T22:09:53.358Z,52.83
2018-02-10T22:12:20.880Z,48.13
2018-02-10T22:14:50.069Z,49.53
2018-02-10T22:17:18.236Z,49.27
2018-02-10T22:19:45.760Z,48.40
2018-02-10T22:22:13.256Z,43.73
2018-02-10T22:24:40.746Z,51.93
2018-02-10T22:27:08.298Z,49.57
2018-02-10T22:29:35.788Z,49.70
2018-02-10T22:32:03.285Z,44.33
2018-02-10T22:34:30.780Z,52.23
2018-02-10T22:36:58.311Z,43.33
2018-02-10T22:39:25.797Z,46.50
2018-02-10T22:41:53.341Z,43.30
2018-02-10T22:44:20.857Z,46.17
2018-02-10T22:46:48.350Z,46.93
2018-02-10T22:49:15.850Z,46.07
2018-02-10T22:51:43.621Z,44.73
2018-02-10T22:54:11.109Z,49.63
2018-02-10T22:56:38.604Z,43.07
2018-02-10T22:59:06.103Z,43.20
2018-02-10T23:01:33.637Z,46.80
2018-02-10T23:04:01.138Z,42.10
2018-02-10T23:06:28.666Z,43.10
2018-02-10T23:08:56.180Z,42.73
2018-02-10T23:11:23.682Z,47.83
2018-02-10T23:13:51.205Z,46.97
2018-02-10T23:16:18.700Z,42.77
2018-02-10T23:18:46.217Z,42.77
2018-02-10T23:21:13.717Z,43.57
2018-02-10T23:23:41.238Z,48.80
2018-02-10T23:26:08.749Z,43.50
2018-02-10T23:28:36.279Z,42.20
2018-02-10T23:31:03.784Z,40.03
2018-02-10T23:33:31.315Z,43.60
2018-02-10T23:35:58.839Z,43.80
2018-02-10T23:38:26.349Z,40.20
2018-02-10T23:40:53.877Z,39.10
2018-02-10T23:43:21.404Z,40.90
2018-02-10T23:45:48.927Z,41.80
2018-02-10T23:48:16.449Z,46.00
2018-02-10T23:50:43.267Z,39.17
2018-02-10T23:53:10.764Z,40.27
2018-02-10T23:55:38.266Z,39.10
2018-02-10T23:58:05.793Z,37.30
